aviador You're here:

KWLD Decoded Metar

WINFIELD/ARKANSA in KS, USA
Report Time2017-11-23 13:54:00
UTC Time2017-11-23 14:48:00
Flight Rules vfr VFR
WindCalm
Visibility9999 m
Phenomena:N/A
Clouds:N/A
Expected CloudBase > 2,800 ft AGL from Temp-Dew spread
CeilingNone
Temp02°C (ISA -11)
Dew Point-5°C (60% RH)
AAT-0.6°C
QNH1020 hPa
Density Alt-328 ft
Elevation1,148 ft
Report Wrong Elevation
Raw Report
KWLD 231354Z AUTO 00000KT 10SM CLR 02/M05 A3012 RMK AO2 SLP209
T00221050 $=

Extra information for KWLD:More info

Metar Taf Metar & Taf Last 4 Metars F.Rules Stats Wind Profile Meteogram Temp Stats Airport Information Weather charts Add Link Nearby VenuesMetar ALERT Operation Metar Decoded Social comments

AIRNAV info for KWLD